Current Weather

Gary/Chicago Airport

Gary/Chicago Airport, Indiana (KGYY)

Report from: Monday, May 23, 2022 3:35 AM CDT
Current time: Monday, May 23, 2022 4:02 AM CDT

Nearby weather
Weather history
Weather forecast

Temperature9.6°C (49.3°F)
Wind chill8.3°C (46.9°F)
Dew point5.8°C (42.4°F)
Winds 5 kts (2.6 m/s, 5.8 mph) Northeast (40°)
Visibility10 mi. (16.1 km)
Clouds Sky clear
Altimeter30.36 in.Hg (1028 mB)
Relative humidity77 %
Density altitude-1,014 ft. (-309 m)
Remarks Fully automated report
Automated weather observing station with precipitation discriminator
Flight conditions Visual Meteorological Conditions
Raw dataKGYY 230835Z AUTO 04005KT 10SM CLR 10/06 A3036 RMK AO2 T00960058
An error has occurred. This application may no longer respond until reloaded. Reload 🗙